sensor_id;sensor_type;location;lat;lon;timestamp;P1;durP1;ratioP1;P2;durP2;ratioP2
19285;SDS011;9776;50.798;6.430;2024-01-06T00:00:57;4.20;;;2.80;;
19285;SDS011;9776;50.798;6.430;2024-01-06T00:03:24;4.05;;;2.70;;
19285;SDS011;9776;50.798;6.430;2024-01-06T00:05:50;3.83;;;2.85;;
19285;SDS011;9776;50.798;6.430;2024-01-06T00:08:17;3.60;;;2.70;;
19285;SDS011;9776;50.798;6.430;2024-01-06T00:10:44;2.90;;;2.10;;
19285;SDS011;9776;50.798;6.430;2024-01-06T00:13:11;2.95;;;2.10;;
19285;SDS011;9776;50.798;6.430;2024-01-06T00:15:39;3.25;;;2.20;;
19285;SDS011;9776;50.798;6.430;2024-01-06T00:18:06;3.17;;;1.80;;
19285;SDS011;9776;50.798;6.430;2024-01-06T00:20:33;2.65;;;2.20;;
19285;SDS011;9776;50.798;6.430;2024-01-06T00:23:00;2.35;;;1.70;;
19285;SDS011;9776;50.798;6.430;2024-01-06T00:25:26;2.38;;;1.80;;
19285;SDS011;9776;50.798;6.430;2024-01-06T00:27:53;2.95;;;2.00;;
19285;SDS011;9776;50.798;6.430;2024-01-06T00:30:20;3.97;;;2.33;;
19285;SDS011;9776;50.798;6.430;2024-01-06T00:32:48;3.65;;;2.40;;
19285;SDS011;9776;50.798;6.430;2024-01-06T00:35:15;3.03;;;2.20;;
19285;SDS011;9776;50.798;6.430;2024-01-06T00:37:42;4.35;;;2.80;;
19285;SDS011;9776;50.798;6.430;2024-01-06T00:40:09;3.88;;;2.70;;
19285;SDS011;9776;50.798;6.430;2024-01-06T00:42:37;4.95;;;3.15;;
19285;SDS011;9776;50.798;6.430;2024-01-06T00:45:06;5.07;;;3.03;;
19285;SDS011;9776;50.798;6.430;2024-01-06T00:47:37;4.70;;;3.13;;
19285;SDS011;9776;50.798;6.430;2024-01-06T00:50:22;5.13;;;3.28;;
19285;SDS011;9776;50.798;6.430;2024-01-06T00:52:56;6.18;;;3.72;;
19285;SDS011;9776;50.798;6.430;2024-01-06T00:55:23;8.40;;;4.10;;
19285;SDS011;9776;50.798;6.430;2024-01-06T00:57:53;6.68;;;4.53;;
19285;SDS011;9776;50.798;6.430;2024-01-06T01:00:27;7.13;;;4.07;;
19285;SDS011;9776;50.798;6.430;2024-01-06T01:03:04;6.63;;;3.97;;
19285;SDS011;9776;50.798;6.430;2024-01-06T01:08:42;6.15;;;3.83;;
19285;SDS011;9776;50.798;6.430;2024-01-06T01:11:17;6.68;;;4.32;;
19285;SDS011;9776;50.798;6.430;2024-01-06T01:13:46;8.55;;;5.10;;
19285;SDS011;9776;50.798;6.430;2024-01-06T01:16:13;9.35;;;5.10;;
19285;SDS011;9776;50.798;6.430;2024-01-06T01:18:40;9.35;;;5.72;;
19285;SDS011;9776;50.798;6.430;2024-01-06T01:21:09;7.70;;;5.30;;
19285;SDS011;9776;50.798;6.430;2024-01-06T01:23:38;8.13;;;5.60;;
19285;SDS011;9776;50.798;6.430;2024-01-06T01:26:05;12.30;;;6.28;;
19285;SDS011;9776;50.798;6.430;2024-01-06T01:28:43;12.07;;;6.68;;
19285;SDS011;9776;50.798;6.430;2024-01-06T01:31:10;10.88;;;6.15;;
19285;SDS011;9776;50.798;6.430;2024-01-06T01:33:36;10.60;;;6.15;;
19285;SDS011;9776;50.798;6.430;2024-01-06T01:36:03;12.95;;;7.03;;
19285;SDS011;9776;50.798;6.430;2024-01-06T01:38:32;13.45;;;6.85;;
19285;SDS011;9776;50.798;6.430;2024-01-06T01:40:58;13.00;;;6.82;;
19285;SDS011;9776;50.798;6.430;2024-01-06T01:43:25;12.70;;;7.55;;
19285;SDS011;9776;50.798;6.430;2024-01-06T01:45:53;15.02;;;7.93;;
19285;SDS011;9776;50.798;6.430;2024-01-06T01:48:20;12.35;;;7.30;;
19285;SDS011;9776;50.798;6.430;2024-01-06T01:50:48;11.88;;;6.85;;
19285;SDS011;9776;50.798;6.430;2024-01-06T01:53:16;13.80;;;7.75;;
19285;SDS011;9776;50.798;6.430;2024-01-06T01:55:45;13.40;;;8.00;;
19285;SDS011;9776;50.798;6.430;2024-01-06T01:58:14;13.85;;;7.25;;
19285;SDS011;9776;50.798;6.430;2024-01-06T02:00:42;12.95;;;7.35;;
19285;SDS011;9776;50.798;6.430;2024-01-06T02:03:09;12.30;;;7.55;;
19285;SDS011;9776;50.798;6.430;2024-01-06T02:05:39;12.23;;;7.50;;
19285;SDS011;9776;50.798;6.430;2024-01-06T02:08:06;12.80;;;8.15;;
19285;SDS011;9776;50.798;6.430;2024-01-06T02:10:32;10.93;;;7.20;;
19285;SDS011;9776;50.798;6.430;2024-01-06T02:13:08;13.50;;;8.23;;
19285;SDS011;9776;50.798;6.430;2024-01-06T02:15:36;16.85;;;8.18;;
19285;SDS011;9776;50.798;6.430;2024-01-06T02:18:03;16.27;;;9.10;;
19285;SDS011;9776;50.798;6.430;2024-01-06T02:20:33;16.38;;;9.73;;
19285;SDS011;9776;50.798;6.430;2024-01-06T02:23:02;17.88;;;9.02;;
19285;SDS011;9776;50.798;6.430;2024-01-06T02:25:30;16.48;;;9.18;;
19285;SDS011;9776;50.798;6.430;2024-01-06T02:27:56;17.77;;;9.75;;
19285;SDS011;9776;50.798;6.430;2024-01-06T02:30:23;16.92;;;9.23;;
19285;SDS011;9776;50.798;6.430;2024-01-06T02:32:50;17.98;;;9.82;;
19285;SDS011;9776;50.798;6.430;2024-01-06T02:35:17;18.05;;;9.73;;
19285;SDS011;9776;50.798;6.430;2024-01-06T02:37:44;19.33;;;10.02;;
19285;SDS011;9776;50.798;6.430;2024-01-06T02:40:13;15.02;;;9.15;;
19285;SDS011;9776;50.798;6.430;2024-01-06T02:42:40;22.23;;;10.55;;
19285;SDS011;9776;50.798;6.430;2024-01-06T02:45:07;16.52;;;9.80;;
19285;SDS011;9776;50.798;6.430;2024-01-06T02:47:35;17.38;;;9.85;;
19285;SDS011;9776;50.798;6.430;2024-01-06T02:50:02;18.67;;;9.38;;
19285;SDS011;9776;50.798;6.430;2024-01-06T02:52:29;21.85;;;9.73;;
19285;SDS011;9776;50.798;6.430;2024-01-06T02:54:55;16.10;;;9.27;;
19285;SDS011;9776;50.798;6.430;2024-01-06T02:57:24;19.95;;;9.45;;
19285;SDS011;9776;50.798;6.430;2024-01-06T02:59:50;17.85;;;9.45;;
19285;SDS011;9776;50.798;6.430;2024-01-06T03:02:17;20.02;;;10.50;;
19285;SDS011;9776;50.798;6.430;2024-01-06T03:04:44;17.83;;;10.13;;
19285;SDS011;9776;50.798;6.430;2024-01-06T03:07:11;16.70;;;9.63;;
19285;SDS011;9776;50.798;6.430;2024-01-06T03:09:38;17.52;;;9.05;;
19285;SDS011;9776;50.798;6.430;2024-01-06T03:12:05;18.25;;;9.10;;
19285;SDS011;9776;50.798;6.430;2024-01-06T03:14:35;15.88;;;8.88;;
19285;SDS011;9776;50.798;6.430;2024-01-06T03:17:02;14.40;;;8.02;;
19285;SDS011;9776;50.798;6.430;2024-01-06T03:19:29;18.45;;;8.15;;
19285;SDS011;9776;50.798;6.430;2024-01-06T03:21:56;16.20;;;8.30;;
19285;SDS011;9776;50.798;6.430;2024-01-06T03:24:23;14.40;;;8.00;;
19285;SDS011;9776;50.798;6.430;2024-01-06T03:26:52;13.65;;;8.15;;
19285;SDS011;9776;50.798;6.430;2024-01-06T03:29:19;14.10;;;7.75;;
19285;SDS011;9776;50.798;6.430;2024-01-06T03:31:47;13.20;;;7.75;;
19285;SDS011;9776;50.798;6.430;2024-01-06T03:34:14;16.15;;;7.93;;
19285;SDS011;9776;50.798;6.430;2024-01-06T03:36:41;11.77;;;7.32;;
19285;SDS011;9776;50.798;6.430;2024-01-06T03:39:08;14.10;;;6.63;;
19285;SDS011;9776;50.798;6.430;2024-01-06T03:41:41;13.45;;;6.90;;
19285;SDS011;9776;50.798;6.430;2024-01-06T03:44:10;10.88;;;6.72;;
19285;SDS011;9776;50.798;6.430;2024-01-06T03:46:47;12.32;;;6.45;;
19285;SDS011;9776;50.798;6.430;2024-01-06T03:49:15;9.40;;;6.05;;
19285;SDS011;9776;50.798;6.430;2024-01-06T03:51:43;10.35;;;5.97;;
19285;SDS011;9776;50.798;6.430;2024-01-06T03:54:13;10.18;;;5.70;;
19285;SDS011;9776;50.798;6.430;2024-01-06T03:56:43;11.38;;;5.47;;
19285;SDS011;9776;50.798;6.430;2024-01-06T03:59:10;8.70;;;5.53;;
19285;SDS011;9776;50.798;6.430;2024-01-06T04:01:40;10.57;;;5.78;;
19285;SDS011;9776;50.798;6.430;2024-01-06T04:04:14;9.52;;;6.03;;
19285;SDS011;9776;50.798;6.430;2024-01-06T04:06:41;10.48;;;5.65;;
19285;SDS011;9776;50.798;6.430;2024-01-06T04:09:11;8.02;;;5.20;;
19285;SDS011;9776;50.798;6.430;2024-01-06T04:11:38;10.48;;;5.63;;
19285;SDS011;9776;50.798;6.430;2024-01-06T04:14:05;7.43;;;4.85;;
19285;SDS011;9776;50.798;6.430;2024-01-06T04:16:32;8.05;;;4.82;;
19285;SDS011;9776;50.798;6.430;2024-01-06T04:18:59;5.95;;;3.83;;
19285;SDS011;9776;50.798;6.430;2024-01-06T04:21:27;6.68;;;4.07;;
19285;SDS011;9776;50.798;6.430;2024-01-06T04:23:54;7.30;;;4.65;;
19285;SDS011;9776;50.798;6.430;2024-01-06T04:26:22;7.18;;;4.35;;
19285;SDS011;9776;50.798;6.430;2024-01-06T04:28:48;13.02;;;5.47;;
19285;SDS011;9776;50.798;6.430;2024-01-06T04:31:15;9.57;;;5.65;;
19285;SDS011;9776;50.798;6.430;2024-01-06T04:33:42;9.52;;;5.43;;
19285;SDS011;9776;50.798;6.430;2024-01-06T04:36:09;10.35;;;5.72;;
19285;SDS011;9776;50.798;6.430;2024-01-06T04:38:37;10.68;;;5.97;;
19285;SDS011;9776;50.798;6.430;2024-01-06T04:41:05;11.48;;;6.55;;
19285;SDS011;9776;50.798;6.430;2024-01-06T04:43:31;10.00;;;6.07;;
19285;SDS011;9776;50.798;6.430;2024-01-06T04:45:59;13.18;;;7.20;;
19285;SDS011;9776;50.798;6.430;2024-01-06T04:48:25;12.60;;;7.00;;
19285;SDS011;9776;50.798;6.430;2024-01-06T04:50:53;15.75;;;8.07;;
19285;SDS011;9776;50.798;6.430;2024-01-06T04:53:21;15.60;;;7.65;;
19285;SDS011;9776;50.798;6.430;2024-01-06T04:55:49;14.07;;;7.97;;
19285;SDS011;9776;50.798;6.430;2024-01-06T04:58:16;17.63;;;8.68;;
19285;SDS011;9776;50.798;6.430;2024-01-06T05:00:43;18.88;;;8.32;;
19285;SDS011;9776;50.798;6.430;2024-01-06T05:03:10;17.55;;;8.95;;
19285;SDS011;9776;50.798;6.430;2024-01-06T05:05:37;21.70;;;10.18;;
19285;SDS011;9776;50.798;6.430;2024-01-06T05:08:04;19.67;;;9.55;;
19285;SDS011;9776;50.798;6.430;2024-01-06T05:10:31;18.02;;;9.30;;
19285;SDS011;9776;50.798;6.430;2024-01-06T05:13:00;17.92;;;8.60;;
19285;SDS011;9776;50.798;6.430;2024-01-06T05:15:26;17.38;;;9.02;;
19285;SDS011;9776;50.798;6.430;2024-01-06T05:17:54;17.25;;;9.20;;
19285;SDS011;9776;50.798;6.430;2024-01-06T05:20:21;17.60;;;8.73;;
19285;SDS011;9776;50.798;6.430;2024-01-06T05:22:48;20.10;;;9.98;;
19285;SDS011;9776;50.798;6.430;2024-01-06T05:25:16;17.58;;;9.55;;
19285;SDS011;9776;50.798;6.430;2024-01-06T05:27:44;17.58;;;8.85;;
19285;SDS011;9776;50.798;6.430;2024-01-06T05:30:12;17.80;;;9.63;;
19285;SDS011;9776;50.798;6.430;2024-01-06T05:32:39;17.90;;;9.88;;
19285;SDS011;9776;50.798;6.430;2024-01-06T05:35:06;20.27;;;9.80;;
19285;SDS011;9776;50.798;6.430;2024-01-06T05:37:33;19.05;;;9.25;;
19285;SDS011;9776;50.798;6.430;2024-01-06T05:40:00;18.65;;;9.35;;
19285;SDS011;9776;50.798;6.430;2024-01-06T05:42:29;18.73;;;9.88;;
19285;SDS011;9776;50.798;6.430;2024-01-06T05:44:56;20.60;;;10.00;;
19285;SDS011;9776;50.798;6.430;2024-01-06T05:47:25;19.30;;;10.20;;
19285;SDS011;9776;50.798;6.430;2024-01-06T05:49:52;18.60;;;9.85;;
19285;SDS011;9776;50.798;6.430;2024-01-06T05:52:18;18.38;;;9.57;;
19285;SDS011;9776;50.798;6.430;2024-01-06T05:54:45;17.77;;;9.50;;
19285;SDS011;9776;50.798;6.430;2024-01-06T05:57:12;19.55;;;10.05;;
19285;SDS011;9776;50.798;6.430;2024-01-06T05:59:39;19.40;;;9.82;;
19285;SDS011;9776;50.798;6.430;2024-01-06T06:02:06;19.25;;;9.95;;
19285;SDS011;9776;50.798;6.430;2024-01-06T06:04:35;19.58;;;9.00;;
19285;SDS011;9776;50.798;6.430;2024-01-06T06:07:02;18.85;;;9.25;;
19285;SDS011;9776;50.798;6.430;2024-01-06T06:09:29;19.15;;;10.02;;
19285;SDS011;9776;50.798;6.430;2024-01-06T06:11:56;19.35;;;9.70;;
19285;SDS011;9776;50.798;6.430;2024-01-06T06:14:23;17.13;;;9.05;;
19285;SDS011;9776;50.798;6.430;2024-01-06T06:16:50;17.58;;;8.73;;
19285;SDS011;9776;50.798;6.430;2024-01-06T06:19:18;18.60;;;8.82;;
19285;SDS011;9776;50.798;6.430;2024-01-06T06:21:47;18.92;;;9.40;;
19285;SDS011;9776;50.798;6.430;2024-01-06T06:24:15;21.73;;;9.48;;
19285;SDS011;9776;50.798;6.430;2024-01-06T06:26:42;17.33;;;8.85;;
19285;SDS011;9776;50.798;6.430;2024-01-06T06:29:10;21.10;;;9.90;;
19285;SDS011;9776;50.798;6.430;2024-01-06T06:31:37;18.83;;;9.13;;
19285;SDS011;9776;50.798;6.430;2024-01-06T06:34:04;16.58;;;8.50;;
19285;SDS011;9776;50.798;6.430;2024-01-06T06:36:31;19.45;;;9.55;;
19285;SDS011;9776;50.798;6.430;2024-01-06T06:39:00;17.73;;;8.70;;
19285;SDS011;9776;50.798;6.430;2024-01-06T06:41:29;19.83;;;9.15;;
19285;SDS011;9776;50.798;6.430;2024-01-06T06:43:57;17.80;;;8.98;;
19285;SDS011;9776;50.798;6.430;2024-01-06T06:46:25;17.95;;;8.95;;
19285;SDS011;9776;50.798;6.430;2024-01-06T06:49:06;17.10;;;9.00;;
19285;SDS011;9776;50.798;6.430;2024-01-06T06:51:36;16.65;;;8.88;;
19285;SDS011;9776;50.798;6.430;2024-01-06T06:54:20;17.73;;;8.32;;
19285;SDS011;9776;50.798;6.430;2024-01-06T06:56:51;19.20;;;9.50;;
19285;SDS011;9776;50.798;6.430;2024-01-06T06:59:18;16.60;;;8.30;;
19285;SDS011;9776;50.798;6.430;2024-01-06T07:01:46;17.67;;;8.82;;
19285;SDS011;9776;50.798;6.430;2024-01-06T07:04:13;16.63;;;7.80;;
19285;SDS011;9776;50.798;6.430;2024-01-06T07:06:41;15.70;;;7.80;;
19285;SDS011;9776;50.798;6.430;2024-01-06T07:09:08;17.63;;;7.90;;
19285;SDS011;9776;50.798;6.430;2024-01-06T07:11:36;15.10;;;8.60;;
19285;SDS011;9776;50.798;6.430;2024-01-06T07:14:04;16.02;;;7.90;;
19285;SDS011;9776;50.798;6.430;2024-01-06T07:16:33;15.05;;;7.55;;
19285;SDS011;9776;50.798;6.430;2024-01-06T07:19:00;16.17;;;8.35;;
19285;SDS011;9776;50.798;6.430;2024-01-06T07:21:28;15.65;;;7.80;;
19285;SDS011;9776;50.798;6.430;2024-01-06T07:23:55;15.75;;;7.82;;
19285;SDS011;9776;50.798;6.430;2024-01-06T07:26:22;15.85;;;7.80;;
19285;SDS011;9776;50.798;6.430;2024-01-06T07:28:50;15.45;;;7.60;;
19285;SDS011;9776;50.798;6.430;2024-01-06T07:31:18;17.25;;;8.27;;
19285;SDS011;9776;50.798;6.430;2024-01-06T07:33:46;16.83;;;8.73;;
19285;SDS011;9776;50.798;6.430;2024-01-06T07:36:14;18.98;;;9.48;;
19285;SDS011;9776;50.798;6.430;2024-01-06T07:38:42;17.25;;;9.25;;
19285;SDS011;9776;50.798;6.430;2024-01-06T07:41:11;19.23;;;9.15;;
19285;SDS011;9776;50.798;6.430;2024-01-06T07:43:38;17.80;;;9.02;;
19285;SDS011;9776;50.798;6.430;2024-01-06T07:46:07;19.17;;;9.32;;
19285;SDS011;9776;50.798;6.430;2024-01-06T07:48:34;19.20;;;9.18;;
19285;SDS011;9776;50.798;6.430;2024-01-06T07:51:02;16.73;;;8.77;;
19285;SDS011;9776;50.798;6.430;2024-01-06T07:53:29;15.82;;;8.30;;
19285;SDS011;9776;50.798;6.430;2024-01-06T07:55:57;15.80;;;8.55;;
19285;SDS011;9776;50.798;6.430;2024-01-06T07:58:24;15.80;;;9.05;;
19285;SDS011;9776;50.798;6.430;2024-01-06T08:00:53;15.10;;;8.05;;
19285;SDS011;9776;50.798;6.430;2024-01-06T08:03:22;16.63;;;8.20;;
19285;SDS011;9776;50.798;6.430;2024-01-06T08:05:50;14.57;;;7.80;;
19285;SDS011;9776;50.798;6.430;2024-01-06T08:08:17;14.25;;;6.85;;
19285;SDS011;9776;50.798;6.430;2024-01-06T08:10:45;12.43;;;6.45;;
19285;SDS011;9776;50.798;6.430;2024-01-06T08:13:13;12.07;;;6.80;;
19285;SDS011;9776;50.798;6.430;2024-01-06T08:15:41;11.43;;;5.70;;
19285;SDS011;9776;50.798;6.430;2024-01-06T08:18:09;11.20;;;6.15;;
19285;SDS011;9776;50.798;6.430;2024-01-06T08:20:37;10.07;;;5.40;;
19285;SDS011;9776;50.798;6.430;2024-01-06T08:23:05;12.90;;;6.25;;
19285;SDS011;9776;50.798;6.430;2024-01-06T08:25:32;10.05;;;5.97;;
19285;SDS011;9776;50.798;6.430;2024-01-06T08:27:59;10.85;;;5.97;;
19285;SDS011;9776;50.798;6.430;2024-01-06T08:30:27;11.23;;;6.15;;
19285;SDS011;9776;50.798;6.430;2024-01-06T08:32:55;13.10;;;6.72;;
19285;SDS011;9776;50.798;6.430;2024-01-06T08:35:23;12.05;;;5.90;;
19285;SDS011;9776;50.798;6.430;2024-01-06T08:37:52;9.82;;;5.50;;
19285;SDS011;9776;50.798;6.430;2024-01-06T08:40:21;12.05;;;6.32;;
19285;SDS011;9776;50.798;6.430;2024-01-06T08:42:49;13.55;;;6.72;;
19285;SDS011;9776;50.798;6.430;2024-01-06T08:45:17;13.13;;;6.85;;
19285;SDS011;9776;50.798;6.430;2024-01-06T08:47:45;10.63;;;5.70;;
19285;SDS011;9776;50.798;6.430;2024-01-06T08:50:14;11.98;;;6.13;;
19285;SDS011;9776;50.798;6.430;2024-01-06T08:52:42;11.40;;;6.13;;
19285;SDS011;9776;50.798;6.430;2024-01-06T08:55:11;12.00;;;6.30;;
19285;SDS011;9776;50.798;6.430;2024-01-06T08:57:38;13.15;;;6.95;;
19285;SDS011;9776;50.798;6.430;2024-01-06T09:00:06;13.43;;;6.65;;
19285;SDS011;9776;50.798;6.430;2024-01-06T09:02:34;13.05;;;6.30;;
19285;SDS011;9776;50.798;6.430;2024-01-06T09:05:02;14.52;;;6.85;;
19285;SDS011;9776;50.798;6.430;2024-01-06T09:07:29;13.18;;;6.35;;
19285;SDS011;9776;50.798;6.430;2024-01-06T09:09:57;13.07;;;5.95;;
19285;SDS011;9776;50.798;6.430;2024-01-06T09:12:26;12.05;;;6.47;;
19285;SDS011;9776;50.798;6.430;2024-01-06T09:14:55;95.75;;;43.28;;
19285;SDS011;9776;50.798;6.430;2024-01-06T09:17:22;34.83;;;18.08;;
19285;SDS011;9776;50.798;6.430;2024-01-06T09:19:50;22.10;;;12.68;;
19285;SDS011;9776;50.798;6.430;2024-01-06T09:22:19;18.13;;;10.23;;
19285;SDS011;9776;50.798;6.430;2024-01-06T09:24:46;14.63;;;8.00;;
19285;SDS011;9776;50.798;6.430;2024-01-06T09:27:14;15.52;;;7.70;;
19285;SDS011;9776;50.798;6.430;2024-01-06T09:29:43;13.05;;;7.60;;
19285;SDS011;9776;50.798;6.430;2024-01-06T09:32:10;18.33;;;11.63;;
19285;SDS011;9776;50.798;6.430;2024-01-06T09:34:38;15.25;;;8.35;;
19285;SDS011;9776;50.798;6.430;2024-01-06T09:37:06;14.23;;;7.90;;
19285;SDS011;9776;50.798;6.430;2024-01-06T09:39:33;16.10;;;8.60;;
19285;SDS011;9776;50.798;6.430;2024-01-06T09:42:04;12.18;;;6.95;;
19285;SDS011;9776;50.798;6.430;2024-01-06T09:44:36;13.70;;;7.53;;
19285;SDS011;9776;50.798;6.430;2024-01-06T09:47:17;13.48;;;6.88;;
19285;SDS011;9776;50.798;6.430;2024-01-06T09:49:56;12.48;;;6.70;;
19285;SDS011;9776;50.798;6.430;2024-01-06T09:52:32;13.80;;;7.18;;
19285;SDS011;9776;50.798;6.430;2024-01-06T09:54:59;16.75;;;8.23;;
19285;SDS011;9776;50.798;6.430;2024-01-06T09:57:29;23.23;;;13.98;;
19285;SDS011;9776;50.798;6.430;2024-01-06T09:59:59;15.07;;;9.63;;
19285;SDS011;9776;50.798;6.430;2024-01-06T10:02:36;15.70;;;9.55;;
19285;SDS011;9776;50.798;6.430;2024-01-06T10:05:05;13.70;;;8.10;;
19285;SDS011;9776;50.798;6.430;2024-01-06T10:07:34;11.75;;;6.05;;
19285;SDS011;9776;50.798;6.430;2024-01-06T10:10:01;12.27;;;7.18;;
19285;SDS011;9776;50.798;6.430;2024-01-06T10:12:28;12.43;;;6.57;;
19285;SDS011;9776;50.798;6.430;2024-01-06T10:14:56;13.70;;;7.07;;
19285;SDS011;9776;50.798;6.430;2024-01-06T10:17:23;12.20;;;6.63;;
19285;SDS011;9776;50.798;6.430;2024-01-06T10:19:52;12.05;;;6.30;;
19285;SDS011;9776;50.798;6.430;2024-01-06T10:22:21;12.00;;;6.88;;
19285;SDS011;9776;50.798;6.430;2024-01-06T10:24:58;11.77;;;6.55;;
19285;SDS011;9776;50.798;6.430;2024-01-06T10:27:31;12.13;;;6.47;;
19285;SDS011;9776;50.798;6.430;2024-01-06T10:30:11;12.77;;;6.38;;
19285;SDS011;9776;50.798;6.430;2024-01-06T10:32:54;12.75;;;6.80;;
19285;SDS011;9776;50.798;6.430;2024-01-06T10:35:23;16.63;;;7.85;;
19285;SDS011;9776;50.798;6.430;2024-01-06T10:37:51;12.18;;;6.63;;
19285;SDS011;9776;50.798;6.430;2024-01-06T10:40:18;13.73;;;7.40;;
19285;SDS011;9776;50.798;6.430;2024-01-06T10:42:45;12.95;;;7.82;;
19285;SDS011;9776;50.798;6.430;2024-01-06T10:45:13;15.65;;;8.32;;
19285;SDS011;9776;50.798;6.430;2024-01-06T10:47:40;14.07;;;6.65;;
19285;SDS011;9776;50.798;6.430;2024-01-06T10:50:09;12.05;;;6.30;;
19285;SDS011;9776;50.798;6.430;2024-01-06T10:52:38;26.30;;;13.82;;
19285;SDS011;9776;50.798;6.430;2024-01-06T10:55:05;22.80;;;13.05;;
19285;SDS011;9776;50.798;6.430;2024-01-06T10:57:33;24.20;;;14.50;;
19285;SDS011;9776;50.798;6.430;2024-01-06T11:00:00;31.25;;;17.10;;
19285;SDS011;9776;50.798;6.430;2024-01-06T11:02:30;52.10;;;30.55;;
19285;SDS011;9776;50.798;6.430;2024-01-06T11:04:58;45.97;;;28.50;;
19285;SDS011;9776;50.798;6.430;2024-01-06T11:07:25;58.05;;;43.38;;
19285;SDS011;9776;50.798;6.430;2024-01-06T11:09:55;32.28;;;23.95;;
19285;SDS011;9776;50.798;6.430;2024-01-06T11:12:24;17.58;;;12.07;;
19285;SDS011;9776;50.798;6.430;2024-01-06T11:14:51;17.23;;;10.05;;
19285;SDS011;9776;50.798;6.430;2024-01-06T11:20:18;25.73;;;17.08;;
19285;SDS011;9776;50.798;6.430;2024-01-06T11:22:46;28.02;;;22.27;;
19285;SDS011;9776;50.798;6.430;2024-01-06T11:25:16;18.35;;;12.02;;
19285;SDS011;9776;50.798;6.430;2024-01-06T11:27:44;17.15;;;12.40;;
19285;SDS011;9776;50.798;6.430;2024-01-06T11:30:20;17.95;;;11.95;;
19285;SDS011;9776;50.798;6.430;2024-01-06T11:32:51;36.17;;;24.05;;
19285;SDS011;9776;50.798;6.430;2024-01-06T11:35:20;18.35;;;12.88;;
19285;SDS011;9776;50.798;6.430;2024-01-06T11:38:00;25.85;;;19.33;;
19285;SDS011;9776;50.798;6.430;2024-01-06T11:40:33;11.95;;;7.80;;
19285;SDS011;9776;50.798;6.430;2024-01-06T11:43:02;11.88;;;7.53;;
19285;SDS011;9776;50.798;6.430;2024-01-06T11:45:31;18.90;;;11.02;;
19285;SDS011;9776;50.798;6.430;2024-01-06T11:47:58;15.32;;;9.02;;
19285;SDS011;9776;50.798;6.430;2024-01-06T11:50:27;12.38;;;6.65;;
19285;SDS011;9776;50.798;6.430;2024-01-06T11:52:55;9.77;;;5.70;;
19285;SDS011;9776;50.798;6.430;2024-01-06T11:55:22;16.33;;;11.00;;
19285;SDS011;9776;50.798;6.430;2024-01-06T11:57:54;12.38;;;7.78;;
19285;SDS011;9776;50.798;6.430;2024-01-06T12:00:22;15.52;;;10.10;;
19285;SDS011;9776;50.798;6.430;2024-01-06T12:02:49;9.25;;;5.57;;
19285;SDS011;9776;50.798;6.430;2024-01-06T12:05:21;12.40;;;8.70;;
19285;SDS011;9776;50.798;6.430;2024-01-06T12:07:53;23.98;;;18.42;;
19285;SDS011;9776;50.798;6.430;2024-01-06T12:10:21;13.60;;;6.88;;
19285;SDS011;9776;50.798;6.430;2024-01-06T12:13:00;14.45;;;10.07;;
19285;SDS011;9776;50.798;6.430;2024-01-06T12:15:29;22.35;;;16.35;;
19285;SDS011;9776;50.798;6.430;2024-01-06T12:17:57;8.63;;;5.43;;
19285;SDS011;9776;50.798;6.430;2024-01-06T12:20:31;14.88;;;11.75;;
19285;SDS011;9776;50.798;6.430;2024-01-06T12:23:11;14.98;;;10.13;;
19285;SDS011;9776;50.798;6.430;2024-01-06T12:25:49;21.85;;;16.02;;
19285;SDS011;9776;50.798;6.430;2024-01-06T12:28:19;15.63;;;9.55;;
19285;SDS011;9776;50.798;6.430;2024-01-06T12:30:46;30.52;;;21.65;;
19285;SDS011;9776;50.798;6.430;2024-01-06T12:33:13;14.90;;;10.32;;
19285;SDS011;9776;50.798;6.430;2024-01-06T12:35:41;24.30;;;16.25;;
19285;SDS011;9776;50.798;6.430;2024-01-06T12:38:08;35.67;;;24.70;;
19285;SDS011;9776;50.798;6.430;2024-01-06T12:40:35;26.92;;;16.40;;
19285;SDS011;9776;50.798;6.430;2024-01-06T12:43:03;21.33;;;15.35;;
19285;SDS011;9776;50.798;6.430;2024-01-06T12:45:33;26.10;;;16.17;;
19285;SDS011;9776;50.798;6.430;2024-01-06T12:48:00;16.98;;;10.68;;
19285;SDS011;9776;50.798;6.430;2024-01-06T12:50:27;14.60;;;8.88;;
19285;SDS011;9776;50.798;6.430;2024-01-06T12:52:54;12.70;;;7.85;;
19285;SDS011;9776;50.798;6.430;2024-01-06T12:55:24;24.27;;;18.13;;
19285;SDS011;9776;50.798;6.430;2024-01-06T12:57:54;11.90;;;6.90;;
19285;SDS011;9776;50.798;6.430;2024-01-06T13:00:21;13.15;;;8.38;;
19285;SDS011;9776;50.798;6.430;2024-01-06T13:02:55;11.98;;;8.05;;
19285;SDS011;9776;50.798;6.430;2024-01-06T13:05:22;19.83;;;14.05;;
19285;SDS011;9776;50.798;6.430;2024-01-06T13:07:52;21.30;;;15.02;;
19285;SDS011;9776;50.798;6.430;2024-01-06T13:10:25;17.15;;;12.68;;
19285;SDS011;9776;50.798;6.430;2024-01-06T13:12:52;15.13;;;9.52;;
19285;SDS011;9776;50.798;6.430;2024-01-06T13:15:27;15.48;;;11.30;;
19285;SDS011;9776;50.798;6.430;2024-01-06T13:17:59;12.35;;;7.18;;
19285;SDS011;9776;50.798;6.430;2024-01-06T13:20:26;12.77;;;7.22;;
19285;SDS011;9776;50.798;6.430;2024-01-06T13:22:57;31.27;;;20.98;;
19285;SDS011;9776;50.798;6.430;2024-01-06T13:25:24;20.88;;;13.63;;
19285;SDS011;9776;50.798;6.430;2024-01-06T13:27:53;12.77;;;7.35;;
19285;SDS011;9776;50.798;6.430;2024-01-06T13:30:20;19.83;;;12.65;;
19285;SDS011;9776;50.798;6.430;2024-01-06T13:32:47;15.48;;;9.30;;
19285;SDS011;9776;50.798;6.430;2024-01-06T13:35:17;18.02;;;11.38;;
19285;SDS011;9776;50.798;6.430;2024-01-06T13:37:44;21.20;;;13.68;;
19285;SDS011;9776;50.798;6.430;2024-01-06T13:40:13;19.50;;;11.80;;
19285;SDS011;9776;50.798;6.430;2024-01-06T13:42:44;17.00;;;9.13;;
19285;SDS011;9776;50.798;6.430;2024-01-06T13:45:12;17.00;;;10.48;;
19285;SDS011;9776;50.798;6.430;2024-01-06T13:47:39;18.73;;;9.15;;
19285;SDS011;9776;50.798;6.430;2024-01-06T13:50:07;19.27;;;9.90;;
19285;SDS011;9776;50.798;6.430;2024-01-06T13:52:39;21.27;;;12.32;;
19285;SDS011;9776;50.798;6.430;2024-01-06T13:55:10;18.77;;;11.95;;
19285;SDS011;9776;50.798;6.430;2024-01-06T13:57:37;19.25;;;9.43;;
19285;SDS011;9776;50.798;6.430;2024-01-06T14:00:07;18.45;;;9.30;;
19285;SDS011;9776;50.798;6.430;2024-01-06T14:02:34;20.60;;;10.55;;
19285;SDS011;9776;50.798;6.430;2024-01-06T14:05:04;24.48;;;14.38;;
19285;SDS011;9776;50.798;6.430;2024-01-06T14:07:33;25.17;;;13.20;;
19285;SDS011;9776;50.798;6.430;2024-01-06T14:10:02;24.38;;;14.10;;
19285;SDS011;9776;50.798;6.430;2024-01-06T14:12:30;32.70;;;17.60;;
19285;SDS011;9776;50.798;6.430;2024-01-06T14:14:58;42.25;;;24.70;;
19285;SDS011;9776;50.798;6.430;2024-01-06T14:17:31;39.00;;;22.67;;
19285;SDS011;9776;50.798;6.430;2024-01-06T14:20:01;39.03;;;23.88;;
19285;SDS011;9776;50.798;6.430;2024-01-06T14:22:38;22.33;;;13.05;;
19285;SDS011;9776;50.798;6.430;2024-01-06T14:25:07;25.23;;;13.93;;
19285;SDS011;9776;50.798;6.430;2024-01-06T14:27:34;21.02;;;10.65;;
19285;SDS011;9776;50.798;6.430;2024-01-06T14:30:01;25.80;;;15.80;;
19285;SDS011;9776;50.798;6.430;2024-01-06T14:32:29;25.85;;;13.68;;
19285;SDS011;9776;50.798;6.430;2024-01-06T14:35:00;22.55;;;13.13;;
19285;SDS011;9776;50.798;6.430;2024-01-06T14:37:28;32.58;;;19.67;;
19285;SDS011;9776;50.798;6.430;2024-01-06T14:39:54;21.38;;;12.98;;
19285;SDS011;9776;50.798;6.430;2024-01-06T14:42:23;24.52;;;13.63;;
19285;SDS011;9776;50.798;6.430;2024-01-06T14:44:50;22.55;;;11.80;;
19285;SDS011;9776;50.798;6.430;2024-01-06T14:47:17;21.73;;;9.77;;
19285;SDS011;9776;50.798;6.430;2024-01-06T14:49:44;20.52;;;11.30;;
19285;SDS011;9776;50.798;6.430;2024-01-06T14:52:10;22.65;;;13.43;;
19285;SDS011;9776;50.798;6.430;2024-01-06T14:54:38;21.25;;;12.68;;
19285;SDS011;9776;50.798;6.430;2024-01-06T14:57:06;21.00;;;9.40;;
19285;SDS011;9776;50.798;6.430;2024-01-06T14:59:35;22.42;;;10.75;;